ACA8465 EVRA-CYVR
Flight info
| Callsign | ACA8465 |
|---|---|
| Flight time | N/A |
| Altitude | 30000 |
| Route | SOKVA DCT BODRI/N0492F340 DCT GIKAV DCT GISOX DCT 71N000E/M085F340 74N010W 76N020W 77N030W 78N040W/M084F360 78N050W DCT QQ/N0493F360 DCT EMETO DCT MITOV DCT 67N100W 62N110W/N0488F380 DCT BISPO DCT YWL Q800 ELIDI WHSLR8 |
| Aircraft | B77W/H-SDE1E2E3FGHIJ2J3J4J5M1RWXY/LB1D1 |
Departure
| Time | N/A |
|---|---|
| Airport | Riga International Airport (EVRA) |
Arrival
| Time | 2026-05-03 21:01 |
|---|---|
| Airport | Vancouver International Airport (CYVR) |
| Time | Latitude | Longitude | Altitude | Speed | Heading |
|---|---|---|---|---|---|
| 2026-05-03 20:15 | 53.37949 | -120.81025 | 36074 ft | 530 kts | 223° |
| 2026-05-03 20:15 | 53.31968 | -120.88324 | 36155 ft | 533 kts | 223° |
| 2026-05-03 20:16 | 53.25961 | -120.95685 | 36125 ft | 537 kts | 223° |
| 2026-05-03 20:16 | 53.19919 | -121.03069 | 36133 ft | 539 kts | 223° |
| 2026-05-03 20:17 | 53.13840 | -121.10451 | 36084 ft | 540 kts | 223° |
| 2026-05-03 20:17 | 53.07781 | -121.17782 | 36116 ft | 542 kts | 223° |
| 2026-05-03 20:18 | 53.01670 | -121.25147 | 36118 ft | 543 kts | 223° |
| 2026-05-03 20:18 | 52.96581 | -121.31248 | 36119 ft | 543 kts | 223° |
| 2026-05-03 20:19 | 52.90446 | -121.38609 | 36102 ft | 543 kts | 223° |
| 2026-05-03 20:19 | 52.84332 | -121.45904 | 36127 ft | 541 kts | 222° |
| 2026-05-03 20:20 | 52.78214 | -121.53175 | 36130 ft | 541 kts | 222° |
| 2026-05-03 20:20 | 52.72102 | -121.60418 | 36104 ft | 541 kts | 222° |
| 2026-05-03 20:21 | 52.65987 | -121.67634 | 36037 ft | 540 kts | 222° |
| 2026-05-03 20:21 | 52.59872 | -121.74835 | 36106 ft | 540 kts | 222° |
| 2026-05-03 20:22 | 52.53781 | -121.81983 | 36113 ft | 542 kts | 222° |
| 2026-05-03 20:22 | 52.47621 | -121.89183 | 36127 ft | 543 kts | 221° |
| 2026-05-03 20:23 | 52.41441 | -121.96375 | 36111 ft | 544 kts | 221° |
| 2026-05-03 20:23 | 52.35260 | -122.03548 | 36130 ft | 545 kts | 221° |
| 2026-05-03 20:24 | 52.29057 | -122.10726 | 36124 ft | 547 kts | 221° |
| 2026-05-03 20:24 | 52.22689 | -122.17488 | 36120 ft | 554 kts | 214° |
| 2026-05-03 20:25 | 52.15619 | -122.22688 | 36147 ft | 558 kts | 206° |
| 2026-05-03 20:25 | 52.08423 | -122.27480 | 36110 ft | 559 kts | 206° |
| 2026-05-03 20:26 | 52.01240 | -122.32322 | 36108 ft | 559 kts | 207° |
| 2026-05-03 20:26 | 51.94071 | -122.37217 | 36101 ft | 559 kts | 207° |
| 2026-05-03 20:27 | 51.86899 | -122.42119 | 36079 ft | 559 kts | 207° |
| 2026-05-03 20:27 | 51.79731 | -122.46999 | 36094 ft | 559 kts | 206° |
| 2026-05-03 20:28 | 51.72553 | -122.51836 | 36104 ft | 558 kts | 206° |
| 2026-05-03 20:28 | 51.65423 | -122.56646 | 36107 ft | 558 kts | 206° |
| 2026-05-03 20:29 | 51.58246 | -122.61473 | 36092 ft | 558 kts | 206° |
| 2026-05-03 20:29 | 51.51066 | -122.66277 | 36098 ft | 558 kts | 206° |
| 2026-05-03 20:30 | 51.43885 | -122.71061 | 36106 ft | 558 kts | 206° |
| 2026-05-03 20:30 | 51.36704 | -122.75837 | 36107 ft | 558 kts | 206° |
| 2026-05-03 20:31 | 51.29520 | -122.80602 | 36095 ft | 558 kts | 205° |
| 2026-05-03 20:31 | 51.22334 | -122.85341 | 36126 ft | 558 kts | 205° |
| 2026-05-03 20:32 | 51.15199 | -122.90043 | 36136 ft | 558 kts | 205° |
| 2026-05-03 20:32 | 51.07995 | -122.94767 | 36109 ft | 559 kts | 205° |
| 2026-05-03 20:33 | 51.00811 | -122.99454 | 35793 ft | 555 kts | 205° |
| 2026-05-03 20:33 | 50.97255 | -123.01774 | 35533 ft | 550 kts | 205° |
| 2026-05-03 20:33 | 50.93725 | -123.04075 | 35259 ft | 546 kts | 205° |
| 2026-05-03 20:33 | 50.90209 | -123.06362 | 35058 ft | 545 kts | 205° |
| 2026-05-03 20:34 | 50.86691 | -123.08622 | 34815 ft | 545 kts | 204° |
| 2026-05-03 20:34 | 50.83165 | -123.10838 | 34485 ft | 544 kts | 203° |
| 2026-05-03 20:34 | 50.79656 | -123.13018 | 34343 ft | 541 kts | 204° |
| 2026-05-03 20:34 | 50.76146 | -123.15193 | 34096 ft | 542 kts | 204° |
| 2026-05-03 20:35 | 50.72658 | -123.17356 | 33878 ft | 536 kts | 204° |
| 2026-05-03 20:35 | 50.69209 | -123.19496 | 33594 ft | 530 kts | 204° |
| 2026-05-03 20:35 | 50.65788 | -123.21620 | 32989 ft | 529 kts | 204° |
| 2026-05-03 20:35 | 50.62359 | -123.23754 | 32108 ft | 530 kts | 203° |
| 2026-05-03 20:36 | 50.58968 | -123.25858 | 31313 ft | 528 kts | 203° |
| 2026-05-03 20:36 | 50.55574 | -123.27959 | 30851 ft | 520 kts | 203° |
| 2026-05-03 20:36 | 50.52220 | -123.30035 | 30263 ft | 515 kts | 203° |
| 2026-05-03 20:36 | 50.48900 | -123.32087 | 29649 ft | 510 kts | 203° |
| 2026-05-03 20:37 | 50.45609 | -123.34114 | 29035 ft | 504 kts | 202° |
| 2026-05-03 20:37 | 50.42362 | -123.36112 | 28515 ft | 498 kts | 202° |
| 2026-05-03 20:37 | 50.39145 | -123.38089 | 27907 ft | 493 kts | 202° |
| 2026-05-03 20:37 | 50.35969 | -123.40035 | 27381 ft | 488 kts | 202° |
| 2026-05-03 20:38 | 50.32817 | -123.41964 | 26824 ft | 484 kts | 203° |
| 2026-05-03 20:38 | 50.29695 | -123.43874 | 26285 ft | 479 kts | 203° |
| 2026-05-03 20:38 | 50.26600 | -123.45770 | 25748 ft | 475 kts | 202° |
| 2026-05-03 20:38 | 50.23542 | -123.47638 | 25218 ft | 471 kts | 202° |
| 2026-05-03 20:39 | 50.20499 | -123.49492 | 24691 ft | 467 kts | 202° |
| 2026-05-03 20:39 | 50.17484 | -123.51325 | 24159 ft | 464 kts | 202° |
| 2026-05-03 20:39 | 50.14481 | -123.53151 | 23625 ft | 461 kts | 202° |
| 2026-05-03 20:39 | 50.11490 | -123.54965 | 22976 ft | 459 kts | 202° |
| 2026-05-03 20:40 | 50.08531 | -123.56759 | 22458 ft | 454 kts | 202° |
| 2026-05-03 20:40 | 50.05595 | -123.58540 | 21909 ft | 451 kts | 202° |
| 2026-05-03 20:40 | 50.02726 | -123.60275 | 21410 ft | 446 kts | 202° |
| 2026-05-03 20:40 | 49.99799 | -123.62044 | 20884 ft | 443 kts | 202° |
| 2026-05-03 20:41 | 49.96942 | -123.63796 | 20384 ft | 440 kts | 203° |
| 2026-05-03 20:41 | 49.94147 | -123.65523 | 19861 ft | 437 kts | 202° |
| 2026-05-03 20:41 | 49.91333 | -123.67263 | 19383 ft | 433 kts | 202° |
| 2026-05-03 20:41 | 49.88540 | -123.68984 | 18891 ft | 431 kts | 202° |
| 2026-05-03 20:42 | 49.85758 | -123.70692 | 18385 ft | 429 kts | 202° |
| 2026-05-03 20:42 | 49.82972 | -123.72264 | 17799 ft | 422 kts | 194° |
| 2026-05-03 20:42 | 49.80073 | -123.72693 | 17274 ft | 418 kts | 174° |
| 2026-05-03 20:42 | 49.77261 | -123.71800 | 16816 ft | 409 kts | 164° |
| 2026-05-03 20:43 | 49.74517 | -123.70688 | 16326 ft | 407 kts | 165° |
| 2026-05-03 20:43 | 49.71774 | -123.69661 | 15839 ft | 405 kts | 166° |
| 2026-05-03 20:43 | 49.69026 | -123.68672 | 15347 ft | 404 kts | 166° |
| 2026-05-03 20:43 | 49.66289 | -123.67696 | 14887 ft | 401 kts | 167° |
| 2026-05-03 20:44 | 49.63611 | -123.66747 | 14743 ft | 390 kts | 166° |
| 2026-05-03 20:44 | 49.61010 | -123.65822 | 14568 ft | 381 kts | 166° |
| 2026-05-03 20:44 | 49.58452 | -123.64912 | 14412 ft | 371 kts | 166° |
| 2026-05-03 20:44 | 49.55966 | -123.64027 | 14251 ft | 363 kts | 166° |
| 2026-05-03 20:45 | 49.53529 | -123.63163 | 14100 ft | 353 kts | 166° |
| 2026-05-03 20:45 | 49.51199 | -123.62337 | 13896 ft | 335 kts | 166° |
| 2026-05-03 20:45 | 49.48963 | -123.61542 | 13531 ft | 324 kts | 166° |
| 2026-05-03 20:45 | 49.46786 | -123.60770 | 13217 ft | 320 kts | 166° |
| 2026-05-03 20:46 | 49.44628 | -123.60004 | 12900 ft | 318 kts | 166° |
| 2026-05-03 20:46 | 49.42505 | -123.59250 | 12585 ft | 316 kts | 166° |
| 2026-05-03 20:46 | 49.40338 | -123.58481 | 12251 ft | 315 kts | 166° |
| 2026-05-03 20:46 | 49.38207 | -123.57726 | 11945 ft | 312 kts | 165° |
| 2026-05-03 20:47 | 49.36280 | -123.56459 | 11615 ft | 304 kts | 141° |
| 2026-05-03 20:47 | 49.34912 | -123.54056 | 11341 ft | 297 kts | 117° |
| 2026-05-03 20:47 | 49.34183 | -123.51137 | 11044 ft | 293 kts | 100° |
| 2026-05-03 20:47 | 49.33850 | -123.48059 | 10762 ft | 292 kts | 97° |
| 2026-05-03 20:48 | 49.33559 | -123.44976 | 10460 ft | 293 kts | 97° |
| 2026-05-03 20:48 | 49.33262 | -123.41912 | 10151 ft | 285 kts | 97° |
| 2026-05-03 20:48 | 49.32964 | -123.38970 | 9855 ft | 274 kts | 97° |
| 2026-05-03 20:48 | 49.32669 | -123.36123 | 9505 ft | 266 kts | 97° |
| 2026-05-03 20:49 | 49.32380 | -123.33368 | 9120 ft | 259 kts | 98° |
| 2026-05-03 20:49 | 49.32094 | -123.30633 | 8920 ft | 262 kts | 97° |
| 2026-05-03 20:49 | 49.31803 | -123.27864 | 8595 ft | 265 kts | 97° |
| 2026-05-03 20:49 | 49.31507 | -123.25076 | 8266 ft | 264 kts | 98° |
| 2026-05-03 20:50 | 49.31218 | -123.22358 | 8184 ft | 252 kts | 98° |
| 2026-05-03 20:50 | 49.30937 | -123.19729 | 7982 ft | 252 kts | 98° |
| 2026-05-03 20:50 | 49.30656 | -123.17089 | 7721 ft | 252 kts | 98° |
| 2026-05-03 20:50 | 49.30374 | -123.14447 | 7477 ft | 250 kts | 98° |
| 2026-05-03 20:51 | 49.30094 | -123.11837 | 7221 ft | 247 kts | 98° |
| 2026-05-03 20:51 | 49.29818 | -123.09260 | 6962 ft | 243 kts | 98° |
| 2026-05-03 20:51 | 49.29546 | -123.06735 | 6720 ft | 238 kts | 98° |
| 2026-05-03 20:51 | 49.29279 | -123.04259 | 6475 ft | 233 kts | 98° |
| 2026-05-03 20:52 | 49.29016 | -123.01826 | 6235 ft | 230 kts | 98° |
| 2026-05-03 20:52 | 49.28755 | -122.99423 | 6063 ft | 225 kts | 99° |
| 2026-05-03 20:52 | 49.28405 | -122.97104 | 6007 ft | 225 kts | 104° |
| 2026-05-03 20:52 | 49.27986 | -122.94785 | 6010 ft | 228 kts | 105° |
| 2026-05-03 20:53 | 49.27554 | -122.92414 | 5909 ft | 236 kts | 105° |
| 2026-05-03 20:53 | 49.27108 | -122.89956 | 5548 ft | 236 kts | 104° |
| 2026-05-03 20:53 | 49.26687 | -122.87594 | 5335 ft | 225 kts | 104° |
| 2026-05-03 20:53 | 49.26280 | -122.85311 | 5202 ft | 223 kts | 105° |
| 2026-05-03 20:54 | 49.25868 | -122.83004 | 5085 ft | 227 kts | 105° |
| 2026-05-03 20:54 | 49.24514 | -122.78821 | 4777 ft | 223 kts | 147° |
| 2026-05-03 20:54 | 49.23069 | -122.78071 | 4793 ft | 223 kts | 177° |
| 2026-05-03 20:55 | 49.21491 | -122.78151 | 4781 ft | 229 kts | 184° |
| 2026-05-03 20:55 | 49.19906 | -122.78405 | 4538 ft | 228 kts | 192° |
| 2026-05-03 20:55 | 49.18504 | -122.79478 | 4284 ft | 227 kts | 225° |
| 2026-05-03 20:55 | 49.17635 | -122.81466 | 4123 ft | 225 kts | 244° |
| 2026-05-03 20:56 | 49.16976 | -122.83641 | 3931 ft | 225 kts | 248° |
| 2026-05-03 20:56 | 49.16707 | -122.85947 | 3722 ft | 218 kts | 274° |
| 2026-05-03 20:56 | 49.16888 | -122.88165 | 3543 ft | 206 kts | 278° |
| 2026-05-03 20:56 | 49.17115 | -122.90286 | 3297 ft | 198 kts | 280° |
| 2026-05-03 20:57 | 49.17348 | -122.92327 | 3043 ft | 191 kts | 280° |
| 2026-05-03 20:57 | 49.17576 | -122.94323 | 2802 ft | 191 kts | 280° |
| 2026-05-03 20:57 | 49.17805 | -122.96317 | 2568 ft | 190 kts | 280° |
| 2026-05-03 20:57 | 49.18031 | -122.98301 | 2327 ft | 187 kts | 280° |
| 2026-05-03 20:58 | 49.18250 | -123.00217 | 2094 ft | 178 kts | 280° |
| 2026-05-03 20:58 | 49.18457 | -123.02027 | 1845 ft | 167 kts | 279° |
| 2026-05-03 20:58 | 49.18661 | -123.03802 | 1659 ft | 172 kts | 279° |
| 2026-05-03 20:58 | 49.18859 | -123.05598 | 1391 ft | 169 kts | 279° |
| 2026-05-03 20:59 | 49.19070 | -123.07378 | 1217 ft | 172 kts | 278° |
| 2026-05-03 20:59 | 49.19272 | -123.09183 | 939 ft | 170 kts | 280° |
| 2026-05-03 20:59 | 49.19463 | -123.10903 | 689 ft | 161 kts | 279° |
| 2026-05-03 20:59 | 49.19644 | -123.12549 | 471 ft | 155 kts | 282° |
| 2026-05-03 21:00 | 49.19835 | -123.14148 | 310 ft | 151 kts | 282° |
| 2026-05-03 21:00 | 49.19898 | -123.14686 | 240 ft | 153 kts | 281° |
| 2026-05-03 21:00 | 49.20132 | -123.16729 | 39 ft | 147 kts | 281° |
| 2026-05-03 21:00 | 49.20290 | -123.18089 | 30 ft | 115 kts | 279° |
| 2026-05-03 21:01 | 49.20403 | -123.19055 | 29 ft | 70 kts | 279° |
| 2026-05-03 21:01 | 49.20456 | -123.19533 | 30 ft | 29 kts | 280° |
| 2026-05-03 21:01 | 49.20485 | -123.19782 | 30 ft | 23 kts | 280° |
| 2026-05-03 21:01 | 49.20481 | -123.19954 | 30 ft | 14 kts | 227° |
| 2026-05-03 21:02 | 49.20395 | -123.19992 | 30 ft | 8 kts | 189° |
| 2026-05-03 21:02 | 49.20390 | -123.19994 | 30 ft | 0 kts | 189° |
| 2026-05-03 21:02 | 49.20389 | -123.19994 | 30 ft | 1 kts | 189° |
| 2026-05-03 21:03 | 49.20323 | -123.20005 | 30 ft | 10 kts | 171° |
| 2026-05-03 21:03 | 49.20274 | -123.19827 | 30 ft | 27 kts | 99° |
| 2026-05-03 21:03 | 49.20242 | -123.19542 | 30 ft | 26 kts | 100° |
| 2026-05-03 21:03 | 49.20213 | -123.19298 | 29 ft | 21 kts | 100° |
| 2026-05-03 21:04 | 49.20189 | -123.19082 | 29 ft | 20 kts | 99° |
| 2026-05-03 21:04 | 49.20169 | -123.18905 | 29 ft | 17 kts | 99° |
| 2026-05-03 21:04 | 49.20149 | -123.18731 | 29 ft | 17 kts | 100° |
| 2026-05-03 21:04 | 49.20133 | -123.18594 | 29 ft | 11 kts | 99° |
| 2026-05-03 21:05 | 49.20098 | -123.18503 | 29 ft | 11 kts | 165° |
| 2026-05-03 21:05 | 49.20011 | -123.18522 | 29 ft | 16 kts | 190° |
| 2026-05-03 21:05 | 49.19901 | -123.18552 | 30 ft | 13 kts | 190° |
| 2026-05-03 21:05 | 49.19822 | -123.18573 | 30 ft | 10 kts | 184° |
| 2026-05-03 21:06 | 49.19777 | -123.18507 | 30 ft | 10 kts | 107° |
| 2026-05-03 21:06 | 49.19763 | -123.18404 | 30 ft | 10 kts | 101° |
| 2026-05-03 21:06 | 49.19751 | -123.18301 | 30 ft | 10 kts | 99° |
| 2026-05-03 21:06 | 49.19735 | -123.18199 | 30 ft | 10 kts | 111° |
| 2026-05-03 21:07 | 49.19697 | -123.18113 | 30 ft | 9 kts | 126° |
| 2026-05-03 21:07 | 49.19700 | -123.18056 | 30 ft | 5 kts | 59° |
| 2026-05-03 21:07 | 49.19723 | -123.18019 | 30 ft | 5 kts | 41° |
| 2026-05-03 21:07 | 49.19733 | -123.18004 | 28 ft | 0 kts | 41° |